sensor_id;sensor_type;location;lat;lon;timestamp;temperature;humidity
4759;DHT22;2393;50.560;12.636;2023-06-22T00:00:35;17.60;99.90
4759;DHT22;2393;50.560;12.636;2023-06-22T00:03:03;17.60;99.90
4759;DHT22;2393;50.560;12.636;2023-06-22T00:05:31;17.50;99.90
4759;DHT22;2393;50.560;12.636;2023-06-22T00:08:03;17.50;99.90
4759;DHT22;2393;50.560;12.636;2023-06-22T00:10:31;17.50;99.90
4759;DHT22;2393;50.560;12.636;2023-06-22T00:13:01;17.40;99.90
4759;DHT22;2393;50.560;12.636;2023-06-22T00:15:29;17.40;99.90
4759;DHT22;2393;50.560;12.636;2023-06-22T00:17:57;17.40;99.90
4759;DHT22;2393;50.560;12.636;2023-06-22T00:20:26;17.30;99.90
4759;DHT22;2393;50.560;12.636;2023-06-22T00:22:58;17.20;99.90
4759;DHT22;2393;50.560;12.636;2023-06-22T00:25:27;17.20;99.90
4759;DHT22;2393;50.560;12.636;2023-06-22T00:27:55;17.10;99.90
4759;DHT22;2393;50.560;12.636;2023-06-22T00:30:25;17.00;99.90
4759;DHT22;2393;50.560;12.636;2023-06-22T00:32:59;16.90;99.90
4759;DHT22;2393;50.560;12.636;2023-06-22T00:35:28;16.80;99.90
4759;DHT22;2393;50.560;12.636;2023-06-22T00:37:57;16.70;99.90
4759;DHT22;2393;50.560;12.636;2023-06-22T00:40:28;16.70;99.90
4759;DHT22;2393;50.560;12.636;2023-06-22T00:42:59;16.60;99.90
4759;DHT22;2393;50.560;12.636;2023-06-22T00:45:30;16.60;99.90
4759;DHT22;2393;50.560;12.636;2023-06-22T00:47:59;16.60;99.90
4759;DHT22;2393;50.560;12.636;2023-06-22T00:50:28;16.50;99.90
4759;DHT22;2393;50.560;12.636;2023-06-22T00:53:03;16.50;99.90
4759;DHT22;2393;50.560;12.636;2023-06-22T00:55:37;16.40;99.90
4759;DHT22;2393;50.560;12.636;2023-06-22T00:58:06;16.40;99.90
4759;DHT22;2393;50.560;12.636;2023-06-22T01:00:39;16.40;99.90
4759;DHT22;2393;50.560;12.636;2023-06-22T01:03:08;16.40;99.90
4759;DHT22;2393;50.560;12.636;2023-06-22T01:05:38;16.40;99.90
4759;DHT22;2393;50.560;12.636;2023-06-22T01:08:15;16.30;99.90
4759;DHT22;2393;50.560;12.636;2023-06-22T01:10:50;16.30;99.90
4759;DHT22;2393;50.560;12.636;2023-06-22T01:13:26;16.20;99.90
4759;DHT22;2393;50.560;12.636;2023-06-22T01:16:02;16.10;99.90
4759;DHT22;2393;50.560;12.636;2023-06-22T01:18:32;16.10;99.90
4759;DHT22;2393;50.560;12.636;2023-06-22T01:21:04;16.00;99.90
4759;DHT22;2393;50.560;12.636;2023-06-22T01:23:54;16.00;99.90
4759;DHT22;2393;50.560;12.636;2023-06-22T01:26:35;16.00;99.90
4759;DHT22;2393;50.560;12.636;2023-06-22T01:29:08;16.00;99.90
4759;DHT22;2393;50.560;12.636;2023-06-22T01:31:39;15.90;99.90
4759;DHT22;2393;50.560;12.636;2023-06-22T01:34:09;15.90;99.90
4759;DHT22;2393;50.560;12.636;2023-06-22T01:36:38;15.90;99.90
4759;DHT22;2393;50.560;12.636;2023-06-22T01:39:07;15.90;99.90
4759;DHT22;2393;50.560;12.636;2023-06-22T01:41:37;16.00;99.90
4759;DHT22;2393;50.560;12.636;2023-06-22T01:44:07;15.90;99.90
4759;DHT22;2393;50.560;12.636;2023-06-22T01:46:37;15.90;99.90
4759;DHT22;2393;50.560;12.636;2023-06-22T01:49:07;15.90;99.90
4759;DHT22;2393;50.560;12.636;2023-06-22T01:51:36;15.80;99.90
4759;DHT22;2393;50.560;12.636;2023-06-22T01:54:06;15.80;99.90
4759;DHT22;2393;50.560;12.636;2023-06-22T01:56:34;15.80;99.90
4759;DHT22;2393;50.560;12.636;2023-06-22T01:59:08;15.80;99.90
4759;DHT22;2393;50.560;12.636;2023-06-22T02:01:43;15.70;99.90
4759;DHT22;2393;50.560;12.636;2023-06-22T02:04:19;15.70;99.90
4759;DHT22;2393;50.560;12.636;2023-06-22T02:06:50;15.70;99.90
4759;DHT22;2393;50.560;12.636;2023-06-22T02:09:21;15.60;99.90
4759;DHT22;2393;50.560;12.636;2023-06-22T02:11:51;15.60;99.90
4759;DHT22;2393;50.560;12.636;2023-06-22T02:14:24;15.50;99.90
4759;DHT22;2393;50.560;12.636;2023-06-22T02:16:53;15.40;99.90
4759;DHT22;2393;50.560;12.636;2023-06-22T02:19:26;15.40;99.90
4759;DHT22;2393;50.560;12.636;2023-06-22T02:21:54;15.40;99.90
4759;DHT22;2393;50.560;12.636;2023-06-22T02:24:22;15.40;99.90
4759;DHT22;2393;50.560;12.636;2023-06-22T02:26:51;15.30;99.90
4759;DHT22;2393;50.560;12.636;2023-06-22T02:29:19;15.40;99.90
4759;DHT22;2393;50.560;12.636;2023-06-22T02:31:49;15.30;99.90
4759;DHT22;2393;50.560;12.636;2023-06-22T02:34:19;15.30;99.90
4759;DHT22;2393;50.560;12.636;2023-06-22T02:36:48;15.30;99.90
4759;DHT22;2393;50.560;12.636;2023-06-22T02:39:20;15.20;99.90
4759;DHT22;2393;50.560;12.636;2023-06-22T02:41:50;15.30;99.90
4759;DHT22;2393;50.560;12.636;2023-06-22T02:44:19;15.30;99.90
4759;DHT22;2393;50.560;12.636;2023-06-22T02:46:51;15.30;99.90
4759;DHT22;2393;50.560;12.636;2023-06-22T02:49:21;15.40;99.90
4759;DHT22;2393;50.560;12.636;2023-06-22T02:51:50;15.40;99.90
4759;DHT22;2393;50.560;12.636;2023-06-22T02:54:20;15.40;99.90
4759;DHT22;2393;50.560;12.636;2023-06-22T02:56:51;15.40;99.90
4759;DHT22;2393;50.560;12.636;2023-06-22T02:59:21;15.50;99.90
4759;DHT22;2393;50.560;12.636;2023-06-22T03:01:55;15.50;99.90
4759;DHT22;2393;50.560;12.636;2023-06-22T03:04:28;15.40;99.90
4759;DHT22;2393;50.560;12.636;2023-06-22T03:06:58;15.40;99.90
4759;DHT22;2393;50.560;12.636;2023-06-22T03:09:29;15.40;99.90
4759;DHT22;2393;50.560;12.636;2023-06-22T03:11:57;15.40;99.90
4759;DHT22;2393;50.560;12.636;2023-06-22T03:14:33;15.30;99.90
4759;DHT22;2393;50.560;12.636;2023-06-22T03:17:05;15.30;99.90
4759;DHT22;2393;50.560;12.636;2023-06-22T03:19:33;15.20;99.90
4759;DHT22;2393;50.560;12.636;2023-06-22T03:22:02;15.20;99.90
4759;DHT22;2393;50.560;12.636;2023-06-22T03:24:30;15.20;99.90
4759;DHT22;2393;50.560;12.636;2023-06-22T03:26:58;15.20;99.90
4759;DHT22;2393;50.560;12.636;2023-06-22T03:29:27;15.20;99.90
4759;DHT22;2393;50.560;12.636;2023-06-22T03:31:57;15.20;99.90
4759;DHT22;2393;50.560;12.636;2023-06-22T03:34:27;15.10;99.90
4759;DHT22;2393;50.560;12.636;2023-06-22T03:36:55;15.10;99.90
4759;DHT22;2393;50.560;12.636;2023-06-22T03:39:24;15.00;99.90
4759;DHT22;2393;50.560;12.636;2023-06-22T03:41:52;15.00;99.90
4759;DHT22;2393;50.560;12.636;2023-06-22T03:44:21;15.00;99.90
4759;DHT22;2393;50.560;12.636;2023-06-22T03:46:49;15.00;99.90
4759;DHT22;2393;50.560;12.636;2023-06-22T03:49:20;15.00;99.90
4759;DHT22;2393;50.560;12.636;2023-06-22T03:51:49;15.10;99.90
4759;DHT22;2393;50.560;12.636;2023-06-22T03:54:17;15.10;99.90
4759;DHT22;2393;50.560;12.636;2023-06-22T03:56:47;15.20;99.90
4759;DHT22;2393;50.560;12.636;2023-06-22T03:59:15;15.20;99.90
4759;DHT22;2393;50.560;12.636;2023-06-22T04:01:45;15.20;99.90
4759;DHT22;2393;50.560;12.636;2023-06-22T04:04:13;15.30;99.90
4759;DHT22;2393;50.560;12.636;2023-06-22T04:06:41;15.30;99.90
4759;DHT22;2393;50.560;12.636;2023-06-22T04:09:13;15.40;99.90
4759;DHT22;2393;50.560;12.636;2023-06-22T04:11:41;15.50;99.90
4759;DHT22;2393;50.560;12.636;2023-06-22T04:14:09;15.50;99.90
4759;DHT22;2393;50.560;12.636;2023-06-22T04:16:37;15.70;99.90
4759;DHT22;2393;50.560;12.636;2023-06-22T04:19:05;15.80;99.90
4759;DHT22;2393;50.560;12.636;2023-06-22T04:21:33;15.90;99.90
4759;DHT22;2393;50.560;12.636;2023-06-22T04:24:01;16.00;99.90
4759;DHT22;2393;50.560;12.636;2023-06-22T04:26:30;16.20;99.90
4759;DHT22;2393;50.560;12.636;2023-06-22T04:29:04;16.40;99.90
4759;DHT22;2393;50.560;12.636;2023-06-22T04:31:32;16.50;99.90
4759;DHT22;2393;50.560;12.636;2023-06-22T04:34:04;16.70;99.90
4759;DHT22;2393;50.560;12.636;2023-06-22T04:36:34;16.80;99.90
4759;DHT22;2393;50.560;12.636;2023-06-22T04:39:05;16.90;99.90
4759;DHT22;2393;50.560;12.636;2023-06-22T04:41:38;17.00;99.90
4759;DHT22;2393;50.560;12.636;2023-06-22T04:44:14;17.20;99.90
4759;DHT22;2393;50.560;12.636;2023-06-22T04:46:51;17.40;99.90
4759;DHT22;2393;50.560;12.636;2023-06-22T04:49:21;17.60;99.90
4759;DHT22;2393;50.560;12.636;2023-06-22T04:51:49;17.70;99.90
4759;DHT22;2393;50.560;12.636;2023-06-22T04:54:20;17.70;99.90
4759;DHT22;2393;50.560;12.636;2023-06-22T04:56:49;17.70;99.90
4759;DHT22;2393;50.560;12.636;2023-06-22T04:59:23;17.70;99.90
4759;DHT22;2393;50.560;12.636;2023-06-22T05:01:54;17.90;99.90
4759;DHT22;2393;50.560;12.636;2023-06-22T05:04:22;18.10;99.90
4759;DHT22;2393;50.560;12.636;2023-06-22T05:06:52;18.20;99.90
4759;DHT22;2393;50.560;12.636;2023-06-22T05:09:21;18.50;99.90
4759;DHT22;2393;50.560;12.636;2023-06-22T05:11:50;18.80;99.90
4759;DHT22;2393;50.560;12.636;2023-06-22T05:14:20;19.00;99.90
4759;DHT22;2393;50.560;12.636;2023-06-22T05:16:48;19.20;99.90
4759;DHT22;2393;50.560;12.636;2023-06-22T05:19:19;19.30;99.90
4759;DHT22;2393;50.560;12.636;2023-06-22T05:21:48;19.50;99.90
4759;DHT22;2393;50.560;12.636;2023-06-22T05:24:16;19.60;99.90
4759;DHT22;2393;50.560;12.636;2023-06-22T05:26:47;19.70;99.90
4759;DHT22;2393;50.560;12.636;2023-06-22T05:29:16;19.80;99.90
4759;DHT22;2393;50.560;12.636;2023-06-22T05:31:46;19.90;99.90
4759;DHT22;2393;50.560;12.636;2023-06-22T05:34:14;19.90;99.90
4759;DHT22;2393;50.560;12.636;2023-06-22T05:36:42;20.10;99.90
4759;DHT22;2393;50.560;12.636;2023-06-22T05:39:13;19.90;99.90
4759;DHT22;2393;50.560;12.636;2023-06-22T05:41:41;19.80;99.90
4759;DHT22;2393;50.560;12.636;2023-06-22T05:44:11;19.90;99.90
4759;DHT22;2393;50.560;12.636;2023-06-22T05:46:42;19.90;99.90
4759;DHT22;2393;50.560;12.636;2023-06-22T05:49:12;19.80;99.90
4759;DHT22;2393;50.560;12.636;2023-06-22T05:51:41;19.90;99.90
4759;DHT22;2393;50.560;12.636;2023-06-22T05:54:09;20.00;99.90
4759;DHT22;2393;50.560;12.636;2023-06-22T05:56:40;20.30;99.90
4759;DHT22;2393;50.560;12.636;2023-06-22T05:59:08;20.50;99.90
4759;DHT22;2393;50.560;12.636;2023-06-22T06:01:36;20.60;99.90
4759;DHT22;2393;50.560;12.636;2023-06-22T06:04:05;20.70;99.90
4759;DHT22;2393;50.560;12.636;2023-06-22T06:06:35;21.00;99.90
4759;DHT22;2393;50.560;12.636;2023-06-22T06:09:04;21.30;99.90
4759;DHT22;2393;50.560;12.636;2023-06-22T06:11:32;21.60;99.90
4759;DHT22;2393;50.560;12.636;2023-06-22T06:14:00;22.10;99.90
4759;DHT22;2393;50.560;12.636;2023-06-22T06:16:27;22.60;99.90
4759;DHT22;2393;50.560;12.636;2023-06-22T06:18:55;23.10;99.90
4759;DHT22;2393;50.560;12.636;2023-06-22T06:21:26;23.60;99.90
4759;DHT22;2393;50.560;12.636;2023-06-22T06:23:57;24.00;99.90
4759;DHT22;2393;50.560;12.636;2023-06-22T06:26:25;24.30;99.90
4759;DHT22;2393;50.560;12.636;2023-06-22T06:28:56;24.60;99.90
4759;DHT22;2393;50.560;12.636;2023-06-22T06:31:25;25.00;99.90
4759;DHT22;2393;50.560;12.636;2023-06-22T06:33:55;25.20;99.90
4759;DHT22;2393;50.560;12.636;2023-06-22T06:36:24;25.60;99.90
4759;DHT22;2393;50.560;12.636;2023-06-22T06:38:53;25.90;99.90
4759;DHT22;2393;50.560;12.636;2023-06-22T06:41:21;26.20;99.90
4759;DHT22;2393;50.560;12.636;2023-06-22T06:43:49;26.40;99.90
4759;DHT22;2393;50.560;12.636;2023-06-22T06:46:19;26.40;99.90
4759;DHT22;2393;50.560;12.636;2023-06-22T06:48:47;26.40;99.90
4759;DHT22;2393;50.560;12.636;2023-06-22T06:51:15;26.40;99.90
4759;DHT22;2393;50.560;12.636;2023-06-22T06:53:43;26.50;99.90
4759;DHT22;2393;50.560;12.636;2023-06-22T06:56:12;26.60;99.90
4759;DHT22;2393;50.560;12.636;2023-06-22T06:58:41;26.80;99.90
4759;DHT22;2393;50.560;12.636;2023-06-22T07:01:12;26.80;99.90
4759;DHT22;2393;50.560;12.636;2023-06-22T07:03:40;26.80;99.90
4759;DHT22;2393;50.560;12.636;2023-06-22T07:06:08;26.90;99.90
4759;DHT22;2393;50.560;12.636;2023-06-22T07:08:36;27.00;99.90
4759;DHT22;2393;50.560;12.636;2023-06-22T07:11:06;27.20;99.90
4759;DHT22;2393;50.560;12.636;2023-06-22T07:13:35;27.40;99.90
4759;DHT22;2393;50.560;12.636;2023-06-22T07:16:04;27.40;99.90
4759;DHT22;2393;50.560;12.636;2023-06-22T07:18:32;27.60;99.90
4759;DHT22;2393;50.560;12.636;2023-06-22T07:21:00;27.70;99.90
4759;DHT22;2393;50.560;12.636;2023-06-22T07:23:28;27.90;99.90
4759;DHT22;2393;50.560;12.636;2023-06-22T07:25:56;28.20;99.90
4759;DHT22;2393;50.560;12.636;2023-06-22T07:28:24;28.50;99.90
4759;DHT22;2393;50.560;12.636;2023-06-22T07:30:53;28.40;99.90
4759;DHT22;2393;50.560;12.636;2023-06-22T07:33:21;28.60;99.90
4759;DHT22;2393;50.560;12.636;2023-06-22T07:35:49;28.70;99.90
4759;DHT22;2393;50.560;12.636;2023-06-22T07:38:19;28.90;99.90
4759;DHT22;2393;50.560;12.636;2023-06-22T07:40:47;28.80;99.90
4759;DHT22;2393;50.560;12.636;2023-06-22T07:43:15;28.90;99.90
4759;DHT22;2393;50.560;12.636;2023-06-22T07:45:48;29.00;99.90
4759;DHT22;2393;50.560;12.636;2023-06-22T07:48:21;29.10;99.90
4759;DHT22;2393;50.560;12.636;2023-06-22T07:50:49;29.20;99.90
4759;DHT22;2393;50.560;12.636;2023-06-22T07:53:17;29.40;99.90
4759;DHT22;2393;50.560;12.636;2023-06-22T07:55:45;29.50;99.90
4759;DHT22;2393;50.560;12.636;2023-06-22T07:58:16;29.70;99.90
4759;DHT22;2393;50.560;12.636;2023-06-22T08:00:46;29.90;99.90
4759;DHT22;2393;50.560;12.636;2023-06-22T08:03:15;30.10;99.90
4759;DHT22;2393;50.560;12.636;2023-06-22T08:05:45;30.00;99.90
4759;DHT22;2393;50.560;12.636;2023-06-22T08:08:13;29.90;99.90
4759;DHT22;2393;50.560;12.636;2023-06-22T08:10:42;29.90;99.90
4759;DHT22;2393;50.560;12.636;2023-06-22T08:13:10;29.90;99.90
4759;DHT22;2393;50.560;12.636;2023-06-22T08:15:38;30.10;99.90
4759;DHT22;2393;50.560;12.636;2023-06-22T08:18:06;30.20;99.90
4759;DHT22;2393;50.560;12.636;2023-06-22T08:20:34;30.30;99.90
4759;DHT22;2393;50.560;12.636;2023-06-22T08:23:03;30.50;99.90
4759;DHT22;2393;50.560;12.636;2023-06-22T08:25:33;30.60;99.90
4759;DHT22;2393;50.560;12.636;2023-06-22T08:28:02;30.70;99.90
4759;DHT22;2393;50.560;12.636;2023-06-22T08:30:30;30.70;99.90
4759;DHT22;2393;50.560;12.636;2023-06-22T08:32:58;30.50;99.90
4759;DHT22;2393;50.560;12.636;2023-06-22T08:35:26;30.40;99.90
4759;DHT22;2393;50.560;12.636;2023-06-22T08:37:55;30.50;99.90
4759;DHT22;2393;50.560;12.636;2023-06-22T08:40:25;30.30;99.90
4759;DHT22;2393;50.560;12.636;2023-06-22T08:42:53;30.40;99.90
4759;DHT22;2393;50.560;12.636;2023-06-22T08:45:21;30.40;99.90
4759;DHT22;2393;50.560;12.636;2023-06-22T08:47:49;30.30;99.90
4759;DHT22;2393;50.560;12.636;2023-06-22T08:50:18;30.50;99.90
4759;DHT22;2393;50.560;12.636;2023-06-22T08:52:46;30.70;99.90
4759;DHT22;2393;50.560;12.636;2023-06-22T08:55:15;30.80;99.90
4759;DHT22;2393;50.560;12.636;2023-06-22T08:57:44;31.20;99.90
4759;DHT22;2393;50.560;12.636;2023-06-22T09:00:13;31.20;99.90
4759;DHT22;2393;50.560;12.636;2023-06-22T09:02:46;31.50;99.90
4759;DHT22;2393;50.560;12.636;2023-06-22T09:05:15;31.70;99.90
4759;DHT22;2393;50.560;12.636;2023-06-22T09:07:44;31.40;99.90
4759;DHT22;2393;50.560;12.636;2023-06-22T09:10:13;31.50;99.90
4759;DHT22;2393;50.560;12.636;2023-06-22T09:12:41;31.70;99.90
4759;DHT22;2393;50.560;12.636;2023-06-22T09:15:10;31.90;99.90
4759;DHT22;2393;50.560;12.636;2023-06-22T09:17:44;31.70;99.90
4759;DHT22;2393;50.560;12.636;2023-06-22T09:20:13;31.60;99.90
4759;DHT22;2393;50.560;12.636;2023-06-22T09:22:42;31.60;99.90
4759;DHT22;2393;50.560;12.636;2023-06-22T09:25:10;31.70;99.90
4759;DHT22;2393;50.560;12.636;2023-06-22T09:27:39;31.50;99.90
4759;DHT22;2393;50.560;12.636;2023-06-22T09:30:09;31.70;99.90
4759;DHT22;2393;50.560;12.636;2023-06-22T09:32:37;31.80;99.90
4759;DHT22;2393;50.560;12.636;2023-06-22T09:35:07;31.70;99.90
4759;DHT22;2393;50.560;12.636;2023-06-22T09:37:42;31.80;99.90
4759;DHT22;2393;50.560;12.636;2023-06-22T09:40:11;32.00;99.90
4759;DHT22;2393;50.560;12.636;2023-06-22T09:42:41;32.10;99.90
4759;DHT22;2393;50.560;12.636;2023-06-22T09:45:10;32.20;99.90
4759;DHT22;2393;50.560;12.636;2023-06-22T09:47:39;31.80;99.90
4759;DHT22;2393;50.560;12.636;2023-06-22T09:50:07;31.60;99.90
4759;DHT22;2393;50.560;12.636;2023-06-22T09:52:36;31.70;99.90
4759;DHT22;2393;50.560;12.636;2023-06-22T09:55:08;31.60;99.90
4759;DHT22;2393;50.560;12.636;2023-06-22T09:57:36;31.60;99.90
4759;DHT22;2393;50.560;12.636;2023-06-22T10:00:05;32.10;99.90
4759;DHT22;2393;50.560;12.636;2023-06-22T10:02:37;32.30;99.90
4759;DHT22;2393;50.560;12.636;2023-06-22T10:05:05;32.40;99.90
4759;DHT22;2393;50.560;12.636;2023-06-22T10:07:34;32.20;99.90
4759;DHT22;2393;50.560;12.636;2023-06-22T10:10:07;32.20;99.90
4759;DHT22;2393;50.560;12.636;2023-06-22T10:12:35;31.90;99.20
4759;DHT22;2393;50.560;12.636;2023-06-22T10:15:04;31.50;99.90
4759;DHT22;2393;50.560;12.636;2023-06-22T10:17:32;31.30;99.20
4759;DHT22;2393;50.560;12.636;2023-06-22T10:20:02;31.00;99.90
4759;DHT22;2393;50.560;12.636;2023-06-22T10:22:38;31.20;99.80
4759;DHT22;2393;50.560;12.636;2023-06-22T10:25:07;30.70;99.90
4759;DHT22;2393;50.560;12.636;2023-06-22T10:27:36;31.00;99.90
4759;DHT22;2393;50.560;12.636;2023-06-22T10:30:07;31.30;99.90
4759;DHT22;2393;50.560;12.636;2023-06-22T10:32:38;31.50;99.90
4759;DHT22;2393;50.560;12.636;2023-06-22T10:35:08;31.80;99.90
4759;DHT22;2393;50.560;12.636;2023-06-22T10:37:37;32.10;99.90
4759;DHT22;2393;50.560;12.636;2023-06-22T10:40:06;32.10;99.90
4759;DHT22;2393;50.560;12.636;2023-06-22T10:42:35;32.40;99.90
4759;DHT22;2393;50.560;12.636;2023-06-22T10:45:04;32.40;99.90
4759;DHT22;2393;50.560;12.636;2023-06-22T10:47:32;32.20;99.90
4759;DHT22;2393;50.560;12.636;2023-06-22T10:50:01;32.40;99.90
4759;DHT22;2393;50.560;12.636;2023-06-22T10:52:31;32.60;99.90
4759;DHT22;2393;50.560;12.636;2023-06-22T10:54:59;32.50;97.00
4759;DHT22;2393;50.560;12.636;2023-06-22T10:57:27;32.60;99.90
4759;DHT22;2393;50.560;12.636;2023-06-22T10:59:55;32.70;99.90
4759;DHT22;2393;50.560;12.636;2023-06-22T11:02:23;32.80;98.50
4759;DHT22;2393;50.560;12.636;2023-06-22T11:04:52;32.70;97.10
4759;DHT22;2393;50.560;12.636;2023-06-22T11:07:20;32.60;98.70
4759;DHT22;2393;50.560;12.636;2023-06-22T11:09:49;32.70;98.10
4759;DHT22;2393;50.560;12.636;2023-06-22T11:12:17;32.40;98.80
4759;DHT22;2393;50.560;12.636;2023-06-22T11:14:45;32.00;98.50
4759;DHT22;2393;50.560;12.636;2023-06-22T11:17:13;31.40;98.80
4759;DHT22;2393;50.560;12.636;2023-06-22T11:19:42;31.40;98.70
4759;DHT22;2393;50.560;12.636;2023-06-22T11:22:11;31.10;98.90
4759;DHT22;2393;50.560;12.636;2023-06-22T11:24:40;31.00;98.90
4759;DHT22;2393;50.560;12.636;2023-06-22T11:27:09;31.00;99.90
4759;DHT22;2393;50.560;12.636;2023-06-22T11:29:37;31.40;99.90
4759;DHT22;2393;50.560;12.636;2023-06-22T11:32:07;31.60;99.90
4759;DHT22;2393;50.560;12.636;2023-06-22T11:34:38;31.90;99.90
4759;DHT22;2393;50.560;12.636;2023-06-22T11:37:06;32.40;99.90
4759;DHT22;2393;50.560;12.636;2023-06-22T11:39:34;32.60;99.40
4759;DHT22;2393;50.560;12.636;2023-06-22T11:42:10;32.90;99.60
4759;DHT22;2393;50.560;12.636;2023-06-22T11:44:39;33.30;99.90
4759;DHT22;2393;50.560;12.636;2023-06-22T11:47:07;33.10;98.20
4759;DHT22;2393;50.560;12.636;2023-06-22T11:49:35;33.10;99.90
4759;DHT22;2393;50.560;12.636;2023-06-22T11:52:04;33.00;98.10
4759;DHT22;2393;50.560;12.636;2023-06-22T11:54:32;33.30;97.20
4759;DHT22;2393;50.560;12.636;2023-06-22T11:57:00;33.10;98.00
4759;DHT22;2393;50.560;12.636;2023-06-22T11:59:29;33.50;98.00
4759;DHT22;2393;50.560;12.636;2023-06-22T12:01:57;33.60;99.30
4759;DHT22;2393;50.560;12.636;2023-06-22T12:04:26;33.30;96.70
4759;DHT22;2393;50.560;12.636;2023-06-22T12:06:54;33.40;98.70
4759;DHT22;2393;50.560;12.636;2023-06-22T12:09:22;33.20;98.00
4759;DHT22;2393;50.560;12.636;2023-06-22T12:11:50;33.10;97.10
4759;DHT22;2393;50.560;12.636;2023-06-22T12:14:18;32.90;98.60
4759;DHT22;2393;50.560;12.636;2023-06-22T12:16:47;33.10;98.90
4759;DHT22;2393;50.560;12.636;2023-06-22T12:19:15;33.40;99.00
4759;DHT22;2393;50.560;12.636;2023-06-22T12:21:43;33.70;99.30
4759;DHT22;2393;50.560;12.636;2023-06-22T12:24:13;33.70;97.50
4759;DHT22;2393;50.560;12.636;2023-06-22T12:26:41;34.00;96.70
4759;DHT22;2393;50.560;12.636;2023-06-22T12:29:09;33.70;96.50
4759;DHT22;2393;50.560;12.636;2023-06-22T12:31:37;33.40;96.30
4759;DHT22;2393;50.560;12.636;2023-06-22T12:34:08;33.40;97.80
4759;DHT22;2393;50.560;12.636;2023-06-22T12:36:36;33.10;98.00
4759;DHT22;2393;50.560;12.636;2023-06-22T12:39:04;33.20;99.90
4759;DHT22;2393;50.560;12.636;2023-06-22T12:41:32;33.40;99.90
4759;DHT22;2393;50.560;12.636;2023-06-22T12:44:00;33.30;98.30
4759;DHT22;2393;50.560;12.636;2023-06-22T12:46:28;33.10;99.40
4759;DHT22;2393;50.560;12.636;2023-06-22T12:48:57;33.00;98.70
4759;DHT22;2393;50.560;12.636;2023-06-22T12:51:30;32.90;99.40
4759;DHT22;2393;50.560;12.636;2023-06-22T12:53:58;33.00;99.90
4759;DHT22;2393;50.560;12.636;2023-06-22T12:56:26;33.30;99.80
4759;DHT22;2393;50.560;12.636;2023-06-22T12:58:54;33.60;98.80
4759;DHT22;2393;50.560;12.636;2023-06-22T13:01:22;33.70;98.10
4759;DHT22;2393;50.560;12.636;2023-06-22T13:03:51;33.70;98.20
4759;DHT22;2393;50.560;12.636;2023-06-22T13:06:19;33.40;98.20
4759;DHT22;2393;50.560;12.636;2023-06-22T13:08:49;33.40;97.90
4759;DHT22;2393;50.560;12.636;2023-06-22T13:11:20;33.30;99.90
4759;DHT22;2393;50.560;12.636;2023-06-22T13:13:48;33.30;99.10
4759;DHT22;2393;50.560;12.636;2023-06-22T13:16:16;33.40;98.20
4759;DHT22;2393;50.560;12.636;2023-06-22T13:18:44;33.40;98.60
4759;DHT22;2393;50.560;12.636;2023-06-22T13:21:12;33.20;97.10
4759;DHT22;2393;50.560;12.636;2023-06-22T13:23:41;33.10;97.70
4759;DHT22;2393;50.560;12.636;2023-06-22T13:26:10;33.10;98.40
4759;DHT22;2393;50.560;12.636;2023-06-22T13:28:38;33.20;97.10
4759;DHT22;2393;50.560;12.636;2023-06-22T13:31:06;33.30;95.90
4759;DHT22;2393;50.560;12.636;2023-06-22T13:33:38;33.00;95.70
4759;DHT22;2393;50.560;12.636;2023-06-22T13:36:07;32.90;96.10
4759;DHT22;2393;50.560;12.636;2023-06-22T13:38:36;33.00;96.50
4759;DHT22;2393;50.560;12.636;2023-06-22T13:41:06;33.10;97.70
4759;DHT22;2393;50.560;12.636;2023-06-22T13:43:36;33.00;96.20
4759;DHT22;2393;50.560;12.636;2023-06-22T13:46:04;32.50;96.40
4759;DHT22;2393;50.560;12.636;2023-06-22T13:48:33;32.30;98.90
4759;DHT22;2393;50.560;12.636;2023-06-22T13:51:01;32.30;96.90
4759;DHT22;2393;50.560;12.636;2023-06-22T13:53:29;32.20;97.00
4759;DHT22;2393;50.560;12.636;2023-06-22T13:55:57;32.00;97.40
4759;DHT22;2393;50.560;12.636;2023-06-22T13:58:25;32.10;99.00
4759;DHT22;2393;50.560;12.636;2023-06-22T14:00:54;32.20;99.10
4759;DHT22;2393;50.560;12.636;2023-06-22T14:03:23;32.20;98.60
4759;DHT22;2393;50.560;12.636;2023-06-22T14:05:51;32.50;99.10
4759;DHT22;2393;50.560;12.636;2023-06-22T14:08:23;32.80;99.00
4759;DHT22;2393;50.560;12.636;2023-06-22T14:11:07;32.90;96.10
4759;DHT22;2393;50.560;12.636;2023-06-22T14:13:35;33.00;97.40
4759;DHT22;2393;50.560;12.636;2023-06-22T14:16:05;32.90;95.60
4759;DHT22;2393;50.560;12.636;2023-06-22T14:18:33;32.90;96.80
4759;DHT22;2393;50.560;12.636;2023-06-22T14:21:01;33.10;98.00
4759;DHT22;2393;50.560;12.636;2023-06-22T14:23:29;33.00;96.90
4759;DHT22;2393;50.560;12.636;2023-06-22T14:25:57;33.00;95.70
4759;DHT22;2393;50.560;12.636;2023-06-22T14:28:25;32.70;95.80
4759;DHT22;2393;50.560;12.636;2023-06-22T14:30:53;32.70;95.90
4759;DHT22;2393;50.560;12.636;2023-06-22T14:33:24;32.40;95.70
4759;DHT22;2393;50.560;12.636;2023-06-22T14:35:52;32.20;97.80
4759;DHT22;2393;50.560;12.636;2023-06-22T14:38:20;32.30;98.20
4759;DHT22;2393;50.560;12.636;2023-06-22T14:40:48;32.40;97.70
4759;DHT22;2393;50.560;12.636;2023-06-22T14:43:36;32.20;97.10
4759;DHT22;2393;50.560;12.636;2023-06-22T14:46:04;32.00;96.30
4759;DHT22;2393;50.560;12.636;2023-06-22T14:48:33;31.90;96.40
4759;DHT22;2393;50.560;12.636;2023-06-22T14:51:01;31.80;98.30
4759;DHT22;2393;50.560;12.636;2023-06-22T14:53:29;32.10;99.90
4759;DHT22;2393;50.560;12.636;2023-06-22T14:55:57;32.40;98.50
4759;DHT22;2393;50.560;12.636;2023-06-22T14:58:28;32.40;98.50
4759;DHT22;2393;50.560;12.636;2023-06-22T15:00:56;32.50;98.40
4759;DHT22;2393;50.560;12.636;2023-06-22T15:03:24;32.50;97.30
4759;DHT22;2393;50.560;12.636;2023-06-22T15:05:56;32.60;98.90
4759;DHT22;2393;50.560;12.636;2023-06-22T15:08:25;32.70;98.30
4759;DHT22;2393;50.560;12.636;2023-06-22T15:10:53;32.40;96.20
4759;DHT22;2393;50.560;12.636;2023-06-22T15:13:21;32.20;96.80
4759;DHT22;2393;50.560;12.636;2023-06-22T15:15:50;32.20;97.80
4759;DHT22;2393;50.560;12.636;2023-06-22T15:18:18;32.20;97.70
4759;DHT22;2393;50.560;12.636;2023-06-22T15:20:46;32.10;97.70
4759;DHT22;2393;50.560;12.636;2023-06-22T15:23:17;32.20;99.30
4759;DHT22;2393;50.560;12.636;2023-06-22T15:25:45;32.20;98.90
4759;DHT22;2393;50.560;12.636;2023-06-22T15:28:14;32.20;98.20
4759;DHT22;2393;50.560;12.636;2023-06-22T15:30:42;32.50;99.80
4759;DHT22;2393;50.560;12.636;2023-06-22T15:33:13;32.60;99.20
4759;DHT22;2393;50.560;12.636;2023-06-22T15:35:41;32.70;99.50
4759;DHT22;2393;50.560;12.636;2023-06-22T15:38:09;32.90;99.00
4759;DHT22;2393;50.560;12.636;2023-06-22T15:40:39;32.70;96.70
4759;DHT22;2393;50.560;12.636;2023-06-22T15:43:10;32.40;97.70
4759;DHT22;2393;50.560;12.636;2023-06-22T15:45:38;32.10;97.10
4759;DHT22;2393;50.560;12.636;2023-06-22T15:48:06;32.00;98.50
4759;DHT22;2393;50.560;12.636;2023-06-22T15:50:34;32.00;98.80
4759;DHT22;2393;50.560;12.636;2023-06-22T15:53:02;32.00;97.20
4759;DHT22;2393;50.560;12.636;2023-06-22T15:55:30;31.80;97.00
4759;DHT22;2393;50.560;12.636;2023-06-22T15:58:00;31.60;97.60